Impacts METAR Board INFO
IDs:

KMEM - Memphis Intl, TN, US

Updated at: 2301 UTC 21 Feb 2018
Potential Impact None Slight Moderate High
Time21/11Z 21/12Z 21/13Z 21/14Z 21/15Z 21/16Z 21/17Z 21/18Z 21/19Z 21/20Z 21/21Z 21/22Z 21/23Z
VIS 3 3 6 6 4 5 4 4 4 6 6
CIG 7 7 7 60 6 6 6 6 46 6 6
CoverOVCOVCOVCOVCOVCOVCOVCOVCOVCOVCOVC
FltCatIFRIFRIFRVFRIFRIFRIFRIFRMVFRIFRIFR
WXRA BR-RA BR-RA BR-RA BR-RA BR-RA BRRA BR-RA BR-RA BR-RA BR-RA BR
WDir360103603040303010201030
WSpd 10 12 11 8 11 5 8 10 9 9 10
WGst -- -- -- -- -- -- -- -- -- -- --
Raw hourly METARs


KMEM 211301Z 36010KT 3SM RA BR BKN007 BKN037 OVC044 12/12 A3028 RMK AO2 P0001 T01220117
KMEM 211354Z 01012KT 3SM -RA BR BKN007 BKN013 OVC049 11/10 A3033 RMK AO2 SLP269 P0019 T01060100
KMEM 211454Z 36011KT 6SM -RA BR BKN007 OVC060 09/08 A3035 RMK AO2 SLP275 P0007 60038 T00890078 51036
KMEM 211554Z 03008KT 6SM -RA BR SCT006 OVC060 08/08 A3034 RMK AO2 SLP271 P0006 T00830078
KMEM 211654Z 04011KT 4SM -RA BR BKN006 OVC060 09/08 A3035 RMK AO2 RAE27B47 SLP274 P0001 T00890078
KMEM 211754Z 03005KT 5SM -RA BR BKN006 BKN030 OVC055 09/08 A3035 RMK AO2 SLP274 P0007 60052 T00890083 10144 20083 51005
KMEM 211854Z 03008KT 4SM RA BR BKN006 BKN034 OVC060 09/08 A3034 RMK AO2 SLP273 P0013 T00890078
KMEM 211954Z 01010KT 4SM -RA BR BKN006 OVC036 08/08 A3033 RMK AO2 SLP270 P0002 T00830078
KMEM 212059Z 02009KT 4SM -RA BR SCT006 BKN046 OVC055 09/08 A3032 RMK AO2 P0001 T00890078
KMEM 212154Z 01009KT 6SM -RA BR BKN006 BKN046 OVC060 08/07 A3033 RMK AO2 SLP270 P0002 T00830072
KMEM 212254Z 03010KT 6SM -RA BR OVC006 08/07 A3033 RMK AO2 SLP270 P0003 T00780067